Latest Weather Observations for Warragul (Nilma North)

IDV60801

Issued at 5:31 pm EDT Sunday 21 December 2014 (issued every 30 minutes, with the page automatically refreshed every 10 minutes)

About weather observations | Map of weather stations | Latest weather observations for VIC | Other Formats
Station Details ID: 085313 Name: NILMA NORTH (WARRAGUL) Lat: -38.13 Lon: 145.99 Height: 134.11 m
Data from the previous 72 hours. | See also: Recent months for locations in Victoria
Date/Time
EDT
Temp
°C
App
Temp
°C
Dew
Point
Rel
Hum
%
Delta-T
°C
Wind Press
QNH
hPa
Press
MSL
hPa
Rain
since 9 am
mm
Dir
 
Spd
km/h
Gust
km/h
Spd
kts
Gust
kts
21/05:30pm 29.6 29.4 12.9 35 9.9 SSE 6 9 3 5 1011.7 1011.4 0.0
21/05:00pm 30.0 28.7 10.0 29 11.4 WSW 7 15 4 8 1012.0 1011.7 0.0
21/04:30pm 29.7 28.7 10.3 30 11.1 W 6 11 3 6 1012.2 1011.9 0.0
21/04:00pm 29.3 28.3 12.3 35 10.0 SW 9 17 5 9 1012.5 1012.2 0.0
21/03:30pm 29.4 27.8 11.5 33 10.4 SW 11 20 6 11 1012.9 1012.7 0.0
21/03:00pm 29.5 27.5 10.1 30 11.0 WSW 11 24 6 13 1013.1 1012.9 0.0
21/02:30pm 29.4 27.9 11.9 34 10.2 W 11 22 6 12 1013.4 1013.2 0.0
21/02:00pm 29.3 27.0 11.8 34 10.2 W 15 24 8 13 1013.9 1013.6 0.0
21/01:30pm 28.4 28.4 14.3 42 8.5 WSW 7 17 4 9 1014.3 1014.0 0.0
21/01:00pm 27.1 28.3 15.8 50 7.0 SSW 4 6 2 3 1014.5 1014.2 0.0
21/12:30pm 25.2 25.8 14.3 50 6.5 S 4 7 2 4 1014.7 1014.4 0.0
21/12:00pm 24.3 25.0 15.5 58 5.3 E 6 9 3 5 1014.7 1014.4 0.0
21/11:30am 23.0 23.2 15.8 64 4.4 E 9 15 5 8 1014.7 1014.4 0.0
21/11:00am 21.7 21.5 15.8 69 3.6 E 11 15 6 8 1014.8 1014.5 0.0
21/10:30am 20.3 19.7 14.7 70 3.3 E 11 17 6 9 1014.9 1014.6 0.0
21/10:00am 19.0 18.4 14.7 76 2.5 E 11 17 6 9 1015.2 1014.9 0.0
21/09:30am 17.0 15.8 14.1 83 1.7 E 13 20 7 11 1015.5 1015.2 0.0
21/09:00am 14.9 14.0 13.6 92 0.7 E 11 19 6 10 1015.7 1015.4 0.0
21/08:30am 13.1 12.3 12.9 99 0.1 E 9 17 5 9 1015.5 1015.2 0.0
21/08:00am 12.3 11.2 12.1 99 0.1 E 9 13 5 7 1016.0 1015.7 0.0
21/07:30am 11.7 10.5 11.5 99 0.1 ENE 9 17 5 9 1016.1 1015.8 0.0
21/07:00am 11.8 10.2 11.5 98 0.2 E 11 17 6 9 1015.7 1015.4 0.0
21/06:30am 11.9 10.3 11.4 97 0.3 E 11 20 6 11 1015.3 1015.0 0.0
21/06:00am 11.3 10.3 11.0 98 0.2 E 7 15 4 8 1015.0 1014.7 0.0
21/05:30am 10.6 10.0 10.3 98 0.2 ESE 4 7 2 4 1014.6 1014.3 0.0
21/05:00am 10.2 9.5 9.9 98 0.2 E 4 9 2 5 1014.6 1014.3 0.0
21/04:30am 10.1 9.3 9.8 98 0.2 ESE 4 4 2 2 1014.8 1014.5 0.0
21/04:00am 9.6 9.4 9.1 97 0.2 CALM 0 0 0 0 1014.9 1014.6 0.0
21/03:30am 9.6 9.4 9.1 97 0.2 CALM 0 0 0 0 1015.3 1015.0 0.0
21/03:00am 10.5 10.6 10.0 97 0.3 CALM 0 0 0 0 1015.5 1015.2 0.0
21/02:30am 10.8 10.9 10.2 96 0.3 CALM 0 0 0 0 1015.8 1015.5 0.0
21/02:00am 11.2 11.0 10.4 95 0.4 NE 2 4 1 2 1016.2 1015.9 0.0
21/01:30am 11.7 11.6 10.9 95 0.4 ENE 2 2 1 1 1016.6 1016.3 0.0
21/01:00am 11.3 11.5 10.4 94 0.5 CALM 0 0 0 0 1017.0 1016.7 0.0
21/12:30am 12.1 12.3 10.7 91 0.7 CALM 0 2 0 1 1017.2 1016.9 0.0
21/12:00am 13.4 13.1 11.5 88 1.0 NNW 4 6 2 3 1017.3 1017.0 0.0
 
Date/Time
EDT
Temp
°C
App
Temp
°C
Dew
Point
Rel
Hum
%
Delta-T
°C
Wind Press
QNH
hPa
Press
MSL
hPa
Rain
since 9 am
mm
Dir
 
Spd
km/h
Gust
km/h
Spd
kts
Gust
kts
20/11:30pm 13.7 13.5 11.8 88 1.0 NNW 4 6 2 3 1017.5 1017.2 0.0
20/11:00pm 13.9 13.6 11.6 86 1.2 NW 4 6 2 3 1017.6 1017.3 0.0
20/10:30pm 14.6 14.8 11.7 83 1.6 NW 2 6 1 3 1017.5 1017.2 0.0
20/10:00pm 15.2 15.3 11.6 79 1.9 WNW 2 4 1 2 1017.6 1017.3 0.0
20/09:30pm 15.8 16.4 11.8 77 2.2 CALM 0 0 0 0 1017.6 1017.3 0.0
20/09:00pm 16.6 17.2 12.0 74 2.5 CALM 0 0 0 0 1017.5 1017.2 0.0
20/08:30pm 18.3 18.5 11.8 66 3.6 WSW 2 6 1 3 1017.4 1017.1 0.0
20/08:00pm 20.0 19.7 11.5 58 4.7 SW 4 7 2 4 1017.2 1016.9 0.0
20/07:30pm 20.0 19.4 11.8 59 4.6 SSW 6 9 3 5 1016.9 1016.6 0.0
20/07:00pm 21.2 20.4 11.2 53 5.5 WSW 6 11 3 6 1016.6 1016.3 0.0
20/06:30pm 21.6 20.4 10.4 49 6.1 SW 7 9 4 5 1016.5 1016.2 0.0
20/06:00pm 21.6 20.1 10.4 49 6.1 W 9 17 5 9 1016.5 1016.2 0.0
20/05:30pm 21.3 19.6 11.1 52 5.7 WSW 11 20 6 11 1016.6 1016.3 0.0
20/05:00pm 21.3 19.6 11.3 53 5.6 WSW 11 20 6 11 1016.7 1016.4 0.0
20/04:30pm 21.7 19.4 10.5 49 6.2 W 13 24 7 13 1016.9 1016.6 0.0
20/04:00pm 21.7 20.1 11.7 53 5.6 WSW 11 20 6 11 1017.1 1016.8 0.0
20/03:30pm 21.6 19.7 10.4 49 6.1 WSW 11 22 6 12 1017.4 1017.1 0.0
20/03:00pm 20.5 17.8 10.3 52 5.5 W 15 24 8 13 1017.7 1017.4 0.0
20/02:30pm 21.1 18.6 11.2 53 5.5 W 15 22 8 12 1017.7 1017.4 0.0
20/02:00pm 20.8 18.3 10.9 53 5.4 W 15 24 8 13 1017.9 1017.6 0.0
20/01:30pm 20.2 18.0 10.9 55 5.1 W 13 20 7 11 1018.1 1017.8 0.0
20/01:00pm 19.8 17.0 10.0 53 5.3 W 15 24 8 13 1018.4 1018.1 0.0
20/12:30pm 18.7 16.7 10.0 57 4.7 WNW 11 19 6 10 1018.5 1018.2 0.0
20/12:00pm 19.0 17.4 10.3 57 4.7 WNW 9 19 5 10 1018.8 1018.5 0.0
20/11:30am 17.9 15.7 10.8 63 3.8 WNW 13 19 7 10 1018.9 1018.6 0.0
20/11:00am 17.1 15.1 10.0 63 3.8 W 11 19 6 10 1019.1 1018.9 0.0
20/10:30am 16.1 14.4 10.0 67 3.2 W 9 15 5 8 1019.3 1019.1 0.0
20/10:00am 15.4 13.8 10.2 71 2.7 NW 9 19 5 10 1019.2 1019.0 0.0
20/09:30am 13.9 14.2 10.9 82 1.6 CALM 0 2 0 1 1019.4 1019.2 0.0
20/09:00am 12.8 12.2 10.5 86 1.2 S 4 4 2 2 1019.1 1018.9 0.4
20/08:30am 12.3 12.5 10.5 89 0.9 CALM 0 0 0 0 1018.7 1018.4 0.4
20/08:00am 11.1 10.3 9.5 90 0.8 E 4 6 2 3 1018.5 1018.2 0.4
20/07:30am 10.3 9.5 9.5 95 0.4 S 4 7 2 4 1018.3 1018.0 0.4
20/07:00am 9.8 9.7 9.3 97 0.2 CALM 0 0 0 0 1018.0 1017.7 0.4
20/06:30am 8.0 7.4 7.4 96 0.3 CALM 0 0 0 0 1017.9 1017.6 0.4
20/06:00am 8.2 7.6 7.4 95 0.4 CALM 0 0 0 0 1018.0 1017.7 0.4
20/05:30am 8.0 7.4 7.2 95 0.4 CALM 0 0 0 0 1017.7 1017.4 0.4
20/05:00am 8.3 7.7 7.4 94 0.4 CALM 0 0 0 0 1017.6 1017.3 0.4
20/04:30am 8.5 7.9 7.6 94 0.4 CALM 0 0 0 0 1017.7 1017.4 0.4
20/04:00am 8.6 8.1 7.7 94 0.4 CALM 0 0 0 0 1017.6 1017.3 0.4
20/03:30am 8.6 8.0 7.4 92 0.6 CALM 0 0 0 0 1017.8 1017.5 0.4
20/03:00am 9.2 8.6 7.5 89 0.8 CALM 0 0 0 0 1017.9 1017.6 0.4
20/02:30am 10.3 9.8 7.7 84 1.3 CALM 0 2 0 1 1018.1 1017.8 0.4
20/02:00am 10.9 9.6 7.8 81 1.5 NNW 4 7 2 4 1018.3 1018.0 0.4
20/01:30am 11.1 9.9 8.1 82 1.5 NNW 4 6 2 3 1018.4 1018.1 0.4
20/01:00am 11.2 10.0 8.2 82 1.5 NNW 4 6 2 3 1018.8 1018.5 0.4
20/12:30am 10.7 9.4 7.8 82 1.4 NNW 4 6 2 3 1019.1 1018.9 0.4
20/12:00am 10.4 9.1 7.6 83 1.3 NW 4 6 2 3 1019.4 1019.2 0.4
 
Date/Time
EDT
Temp
°C
App
Temp
°C
Dew
Point
Rel
Hum
%
Delta-T
°C
Wind Press
QNH
hPa
Press
MSL
hPa
Rain
since 9 am
mm
Dir
 
Spd
km/h
Gust
km/h
Spd
kts
Gust
kts
19/11:30pm 10.6 9.3 7.7 82 1.4 NNW 4 6 2 3 1019.6 1019.4 0.4
19/11:00pm 11.0 9.7 7.7 80 1.6 NW 4 6 2 3 1019.7 1019.5 0.4
19/10:30pm 11.1 9.8 7.8 80 1.6 NW 4 6 2 3 1019.8 1019.6 0.4
19/10:00pm 11.4 10.5 7.7 78 1.8 WNW 2 4 1 2 1019.8 1019.6 0.4
19/09:30pm 11.8 10.5 7.7 76 2.0 WNW 4 7 2 4 1019.6 1019.4 0.4
19/09:00pm 13.3 11.6 7.7 69 2.8 WSW 6 9 3 5 1019.5 1019.3 0.4
19/08:30pm 14.5 12.2 7.3 62 3.6 WSW 9 17 5 9 1019.3 1019.1 0.4
19/08:00pm 15.5 12.7 7.0 57 4.2 SW 11 20 6 11 1019.1 1018.9 0.4
19/07:30pm 15.9 13.6 7.4 57 4.3 SW 9 19 5 10 1018.5 1018.2 0.4
19/07:00pm 16.8 14.6 7.7 55 4.6 SW 9 15 5 8 1018.0 1017.7 0.4
19/06:30pm 16.8 14.1 7.2 53 4.8 WSW 11 20 6 11 1017.8 1017.5 0.4
19/06:00pm 17.9 14.7 6.7 48 5.6 WSW 13 24 7 13 1017.5 1017.2 0.4
19/05:30pm 17.3 13.5 5.9 47 5.6 WSW 15 26 8 14 1017.3 1017.0 0.4
19/05:00pm 17.7 14.1 6.6 48 5.5 WSW 15 24 8 13 1017.2 1016.9 0.4
19/04:30pm 18.0 14.4 6.8 48 5.6 WSW 15 30 8 16 1017.2 1016.9 0.4
19/04:00pm 17.7 14.4 6.3 47 5.6 WSW 13 26 7 14 1017.2 1016.9 0.4
19/03:30pm 16.8 12.9 6.9 52 4.9 W 17 30 9 16 1017.1 1016.8 0.4
19/03:00pm 17.6 14.5 8.7 56 4.6 WSW 15 28 8 15 1017.1 1016.8 0.4
19/02:30pm 16.6 14.2 8.8 60 4.0 WSW 11 17 6 9 1017.0 1016.7 0.4
19/02:00pm 16.8 13.0 7.4 54 4.7 WSW 17 26 9 14 1016.8 1016.5 0.4
19/01:30pm 16.4 12.8 6.8 53 4.8 WSW 15 26 8 14 1017.0 1016.7 0.4
19/01:00pm 16.8 13.3 7.2 53 4.8 WSW 15 26 8 14 1016.9 1016.6 0.4
19/12:30pm 17.0 13.7 7.9 55 4.6 WSW 15 24 8 13 1017.0 1016.7 0.2
19/12:00pm 15.5 12.2 8.0 61 3.8 WSW 15 28 8 15 1016.9 1016.6 0.2
19/11:30am 15.1 13.1 10.1 72 2.6 W 11 19 6 10 1016.7 1016.4 0.2
19/11:00am 12.8 10.3 9.6 81 1.6 WSW 13 24 7 13 1017.0 1016.7 0.2
19/10:30am 15.5 12.7 8.5 63 3.6 W 13 24 7 13 1016.3 1016.0 0.0
19/10:00am 13.1 10.7 9.9 81 1.7 W 13 17 7 9 1016.1 1015.8 0.0
19/09:30am 14.3 12.1 9.5 73 2.5 WSW 11 20 6 11 1016.0 1015.7 0.0
19/09:00am 13.6 11.5 11.3 86 1.2 W 13 17 7 9 1015.9 1015.6 7.4
19/08:30am 11.9 10.4 10.6 92 0.7 W 9 15 5 8 1015.6 1015.3 7.4
19/08:00am 11.2 9.9 10.0 92 0.6 W 7 11 4 6 1015.6 1015.3 7.2
19/07:30am 11.1 10.1 10.2 94 0.5 WNW 6 9 3 5 1015.2 1014.9 6.8
19/07:00am 10.6 9.9 10.0 96 0.3 WNW 4 9 2 5 1014.8 1014.5 6.8
19/06:30am 10.3 9.5 9.5 95 0.4 NW 4 9 2 5 1014.4 1014.1 6.4
19/06:00am 10.3 9.1 9.5 95 0.4 WNW 6 9 3 5 1014.2 1013.9 6.4
19/05:30am 10.5 8.7 9.6 94 0.5 WSW 9 17 5 9 1014.2 1013.9 6.2
19/05:00am 9.9 8.6 9.1 95 0.4 WNW 6 9 3 5 1013.6 1013.3 5.8
19/04:30am 9.5 8.4 8.4 93 0.5 NW 4 6 2 3 1013.1 1012.9 5.8
19/04:00am 10.0 9.0 8.9 93 0.5 WNW 4 6 2 3 1012.9 1012.7 5.8
19/03:30am 10.4 9.0 9.5 94 0.5 W 7 11 4 6 1012.8 1012.6 5.8
19/03:00am 10.0 9.0 8.8 92 0.6 WNW 4 11 2 6 1012.7 1012.5 4.4
19/02:30am 10.2 9.1 8.5 89 0.8 WSW 4 9 2 5 1012.8 1012.6 4.4
19/02:00am 10.2 8.2 8.6 90 0.8 WNW 9 17 5 9 1012.6 1012.3 4.4
19/01:30am 9.9 8.4 8.3 90 0.8 W 6 9 3 5 1012.6 1012.3 4.4
19/01:00am 10.6 9.2 9.0 90 0.8 W 6 9 3 5 1012.6 1012.3 4.4
19/12:30am 11.4 9.7 9.8 90 0.8 W 9 13 5 7 1012.7 1012.5 4.4
19/12:00am 11.4 10.3 9.8 90 0.8 WNW 6 9 3 5 1012.6 1012.3 4.4
 
Date/Time
EDT
Temp
°C
App
Temp
°C
Dew
Point
Rel
Hum
%
Delta-T
°C
Wind Press
QNH
hPa
Press
MSL
hPa
Rain
since 9 am
mm
Dir
 
Spd
km/h
Gust
km/h
Spd
kts
Gust
kts
18/11:30pm 11.9 11.0 10.5 91 0.7 WNW 6 11 3 6 1012.5 1012.2 4.4
18/11:00pm 11.9 10.8 10.6 92 0.7 WNW 7 11 4 6 1012.4 1012.1 4.4
18/10:30pm 12.0 10.9 10.7 92 0.7 WNW 7 13 4 7 1012.2 1011.9 4.4
18/10:00pm 12.3 11.3 10.9 91 0.7 WNW 7 13 4 7 1011.9 1011.6 4.4
18/09:30pm 12.2 11.2 11.1 93 0.6 NW 7 11 4 6 1011.6 1011.3 4.4
18/09:00pm 12.2 11.4 11.1 93 0.6 WNW 6 9 3 5 1011.2 1010.9 4.4
18/08:30pm 12.8 12.2 11.7 93 0.6 WNW 6 11 3 6 1011.1 1010.8 4.4
18/08:00pm 13.1 11.2 11.8 92 0.7 WNW 13 20 7 11 1010.7 1010.4 4.4
18/07:30pm 13.3 10.8 12.4 94 0.5 W 17 26 9 14 1010.5 1010.2 4.4
18/07:00pm 13.2 12.0 12.7 97 0.3 WNW 11 17 6 9 1009.9 1009.6 4.4
18/06:30pm 12.7 10.8 11.9 95 0.4 W 13 20 7 11 1009.6 1009.3 2.2
18/06:00pm 12.9 9.5 11.3 90 0.9 W 20 30 11 16 1009.2 1008.9 0.6

Other Formats:

Comma delimited format used in spreadsheet applications
http://www.bom.gov.au/fwo/IDV60801/IDV60801.99806.axf

JavaScript Object Notation format (JSON) in row-major order
http://www.bom.gov.au/fwo/IDV60801/IDV60801.99806.json